createdAt,value
2022-11-25T00:04:37.116Z,100.00
2022-11-25T00:09:38.653Z,100.00
2022-11-25T00:14:39.961Z,100.00
2022-11-25T00:19:41.277Z,100.00
2022-11-25T00:24:42.704Z,100.00
2022-11-25T00:29:44.012Z,100.00
2022-11-25T00:34:45.357Z,100.00
2022-11-25T00:39:46.708Z,100.00
2022-11-25T00:44:48.042Z,100.00
2022-11-25T00:49:52.210Z,100.00
2022-11-25T00:54:53.959Z,100.00
2022-11-25T00:59:55.298Z,100.00
2022-11-25T01:04:56.844Z,100.00
2022-11-25T01:09:58.146Z,100.00
2022-11-25T01:14:59.453Z,100.00
2022-11-25T01:20:00.812Z,100.00
2022-11-25T01:25:02.155Z,100.00
2022-11-25T01:30:03.574Z,100.00
2022-11-25T01:35:05.357Z,100.00
2022-11-25T01:40:07.265Z,100.00
2022-11-25T01:45:26.676Z,100.00
2022-11-25T01:50:31.973Z,100.00
2022-11-25T01:55:35.025Z,100.00
2022-11-25T02:00:37.645Z,100.00
2022-11-25T02:05:56.359Z,100.00
2022-11-25T02:10:57.893Z,100.00
2022-11-25T02:15:59.252Z,100.00
2022-11-25T02:21:00.661Z,100.00
2022-11-25T02:26:02.845Z,100.00
2022-11-25T02:31:04.479Z,100.00
2022-11-25T02:36:10.626Z,100.00
2022-11-25T02:41:14.995Z,100.00
2022-11-25T02:46:22.220Z,100.00
2022-11-25T02:51:25.527Z,100.00
2022-11-25T02:56:31.741Z,100.00
2022-11-25T03:01:35.055Z,100.00
2022-11-25T03:06:36.525Z,100.00
2022-11-25T03:11:56.569Z,100.00
2022-11-25T03:16:57.946Z,100.00
2022-11-25T03:21:59.304Z,100.00
2022-11-25T03:27:00.623Z,100.00
2022-11-25T03:32:05.482Z,100.00
2022-11-25T03:37:10.722Z,100.00
2022-11-25T03:42:12.323Z,100.00
2022-11-25T03:47:13.646Z,100.00
2022-11-25T03:52:14.972Z,100.00
2022-11-25T03:57:16.312Z,100.00
2022-11-25T04:02:17.709Z,100.00
2022-11-25T04:07:19.091Z,100.00
2022-11-25T04:12:39.230Z,100.00
2022-11-25T04:17:40.658Z,100.00
2022-11-25T04:22:42.160Z,100.00
2022-11-25T04:27:43.795Z,100.00
2022-11-25T04:32:45.114Z,100.00
2022-11-25T04:37:46.482Z,100.00
2022-11-25T04:42:47.788Z,100.00
2022-11-25T04:47:49.172Z,100.00
2022-11-25T04:52:50.869Z,100.00
2022-11-25T04:57:52.145Z,100.00
2022-11-25T05:02:53.506Z,100.00
2022-11-25T05:07:54.982Z,100.00
2022-11-25T05:12:56.342Z,100.00
2022-11-25T05:17:57.681Z,100.00
2022-11-25T05:22:58.997Z,100.00
2022-11-25T05:28:00.632Z,100.00
2022-11-25T05:33:01.974Z,100.00
2022-11-25T05:38:04.269Z,100.00
2022-11-25T05:43:05.578Z,100.00
2022-11-25T05:48:06.912Z,100.00
2022-11-25T05:53:08.235Z,100.00
2022-11-25T05:58:09.572Z,100.00
2022-11-25T06:03:11.040Z,100.00
2022-11-25T06:08:12.536Z,100.00
2022-11-25T06:13:13.871Z,100.00
2022-11-25T06:18:16.194Z,100.00
2022-11-25T06:23:17.527Z,100.00
2022-11-25T06:28:18.903Z,100.00
2022-11-25T06:33:20.289Z,100.00
2022-11-25T06:38:21.610Z,100.00
2022-11-25T06:43:22.917Z,100.00
2022-11-25T06:48:24.216Z,100.00
2022-11-25T06:53:26.170Z,100.00
2022-11-25T06:58:35.890Z,100.00
2022-11-25T07:03:37.795Z,100.00
2022-11-25T07:08:39.604Z,100.00
2022-11-25T07:13:41.028Z,100.00
2022-11-25T07:18:42.547Z,100.00
2022-11-25T07:23:44.627Z,100.00
2022-11-25T07:28:46.028Z,100.00
2022-11-25T07:33:47.978Z,100.00
2022-11-25T07:38:49.358Z,100.00
2022-11-25T07:43:52.674Z,100.00
2022-11-25T07:48:55.087Z,100.00
2022-11-25T07:53:56.891Z,100.00
2022-11-25T07:58:58.275Z,100.00
2022-11-25T08:03:59.704Z,100.00
2022-11-25T08:09:01.015Z,100.00
2022-11-25T08:14:04.326Z,100.00
2022-11-25T08:19:06.919Z,100.00
2022-11-25T08:24:08.351Z,100.00
2022-11-25T08:29:12.560Z,100.00
2022-11-25T08:34:21.947Z,100.00
2022-11-25T08:39:54.159Z,100.00
2022-11-25T08:44:45.373Z,100.00
2022-11-25T08:49:47.293Z,100.00
2022-11-25T08:54:49.030Z,100.00
2022-11-25T08:59:50.374Z,99.98
2022-11-25T09:04:51.818Z,99.67
2022-11-25T09:09:53.155Z,98.31
2022-11-25T09:14:54.477Z,98.53
2022-11-25T09:19:55.796Z,94.71
2022-11-25T09:24:57.190Z,95.23
2022-11-25T09:29:58.568Z,90.17
2022-11-25T09:34:59.916Z,88.94
2022-11-25T09:40:01.693Z,88.02
2022-11-25T09:45:21.889Z,85.97
2022-11-25T09:50:35.412Z,80.20
2022-11-25T09:55:39.970Z,76.88
2022-11-25T10:00:42.612Z,77.38
2022-11-25T10:05:47.638Z,80.06
2022-11-25T10:10:53.078Z,79.43
2022-11-25T10:15:57.875Z,78.63
2022-11-25T10:20:59.363Z,76.77
2022-11-25T10:26:14.643Z,72.51
2022-11-25T10:31:17.567Z,66.57
2022-11-25T10:36:21.755Z,63.64
2022-11-25T10:41:25.111Z,62.19
2022-11-25T10:47:11.604Z,63.73
2022-11-25T10:52:00.631Z,70.57
2022-11-25T10:57:02.963Z,74.30
2022-11-25T11:02:10.301Z,69.39
2022-11-25T11:07:14.018Z,60.74
2022-11-25T11:12:19.543Z,67.16
2022-11-25T11:17:29.620Z,66.61
2022-11-25T11:22:35.486Z,66.93
2022-11-25T11:27:37.708Z,63.32
2022-11-25T11:32:40.552Z,66.67
2022-11-25T11:37:44.283Z,69.54
2022-11-25T11:42:52.165Z,69.38
2022-11-25T11:47:53.978Z,67.44
2022-11-25T11:52:58.173Z,71.09
2022-11-25T11:58:06.085Z,62.90
2022-11-25T12:03:10.268Z,65.11
2022-11-25T12:08:26.324Z,69.78
2022-11-25T12:13:33.321Z,70.70
2022-11-25T12:18:53.365Z,70.51
2022-11-25T12:24:18.006Z,70.72
2022-11-25T12:29:25.175Z,73.87
2022-11-25T12:34:31.966Z,66.37
2022-11-25T12:39:40.907Z,61.89
2022-11-25T12:45:00.766Z,59.80
2022-11-25T12:50:02.224Z,64.03
2022-11-25T12:55:09.762Z,66.96
2022-11-25T13:00:40.369Z,69.47
2022-11-25T13:05:53.562Z,71.82
2022-11-25T13:10:58.038Z,69.25
2022-11-25T13:16:00.961Z,68.13
2022-11-25T13:21:06.712Z,67.40
2022-11-25T13:26:26.562Z,69.47
2022-11-25T13:31:32.192Z,68.21
2022-11-25T13:36:47.356Z,66.21
2022-11-25T13:41:50.104Z,66.17
2022-11-25T13:46:53.020Z,62.29
2022-11-25T13:51:59.424Z,64.74
2022-11-25T13:57:21.043Z,65.44
2022-11-25T14:02:28.555Z,64.56
2022-11-25T14:07:34.230Z,64.94
2022-11-25T14:12:54.056Z,65.98
2022-11-25T14:18:06.027Z,64.78
2022-11-25T14:23:07.347Z,64.90
2022-11-25T14:28:14.242Z,66.89
2022-11-25T14:33:17.145Z,68.70
2022-11-25T14:38:18.492Z,71.25
2022-11-25T14:43:27.174Z,70.94
2022-11-25T14:48:28.518Z,70.15
2022-11-25T14:53:30.523Z,74.28
2022-11-25T14:58:31.867Z,78.72
2022-11-25T15:03:33.342Z,77.66
2022-11-25T15:08:42.531Z,80.23
2022-11-25T15:13:47.674Z,84.40
2022-11-25T15:18:50.591Z,82.54
2022-11-25T15:23:51.919Z,86.29
2022-11-25T15:28:54.215Z,87.18
2022-11-25T15:33:57.842Z,86.85
2022-11-25T15:39:17.615Z,89.10
2022-11-25T15:44:26.505Z,93.70
2022-11-25T15:49:27.910Z,90.43
2022-11-25T15:54:31.287Z,91.77
2022-11-25T15:59:40.854Z,90.80
2022-11-25T16:04:42.184Z,93.22
2022-11-25T16:09:50.372Z,92.79
2022-11-25T16:14:51.679Z,92.48
2022-11-25T16:19:53.001Z,94.68
2022-11-25T16:25:01.781Z,94.40
2022-11-25T16:30:06.613Z,96.11
2022-11-25T16:35:15.249Z,97.14
2022-11-25T16:40:17.569Z,97.34
2022-11-25T16:45:28.441Z,98.53
2022-11-25T16:50:29.847Z,95.24
2022-11-25T16:55:31.282Z,96.24
2022-11-25T17:00:32.606Z,96.24
2022-11-25T17:05:34.610Z,95.25
2022-11-25T17:10:35.952Z,95.17
2022-11-25T17:15:37.991Z,95.86
2022-11-25T17:20:39.461Z,97.13
2022-11-25T17:25:42.197Z,98.16
2022-11-25T17:30:44.281Z,98.55
2022-11-25T17:35:46.134Z,97.21
2022-11-25T17:40:47.869Z,98.90
2022-11-25T17:45:49.231Z,98.74
2022-11-25T17:50:50.589Z,99.60
2022-11-25T17:55:53.122Z,100.00
2022-11-25T18:00:54.515Z,100.00
2022-11-25T18:05:55.928Z,100.00
2022-11-25T18:10:58.037Z,100.00
2022-11-25T18:15:59.463Z,100.00
2022-11-25T18:21:00.858Z,100.00
2022-11-25T18:26:02.246Z,100.00
2022-11-25T18:31:05.139Z,100.00
2022-11-25T18:36:06.748Z,100.00
2022-11-25T18:41:12.980Z,100.00
2022-11-25T18:46:14.592Z,100.00
2022-11-25T18:51:16.015Z,100.00
2022-11-25T18:56:18.116Z,100.00
2022-11-25T19:01:22.099Z,100.00
2022-11-25T19:06:23.528Z,100.00
2022-11-25T19:11:36.723Z,100.00
2022-11-25T19:16:38.235Z,100.00
2022-11-25T19:21:39.634Z,100.00
2022-11-25T19:26:43.289Z,100.00
2022-11-25T19:31:45.126Z,100.00
2022-11-25T19:36:46.476Z,100.00
2022-11-25T19:41:48.069Z,100.00
2022-11-25T19:47:14.429Z,100.00
2022-11-25T19:52:21.998Z,100.00
2022-11-25T19:57:24.013Z,100.00
2022-11-25T20:02:26.279Z,100.00
2022-11-25T20:07:29.404Z,100.00
2022-11-25T20:12:30.750Z,100.00
2022-11-25T20:17:33.494Z,100.00
2022-11-25T20:22:36.158Z,100.00
2022-11-25T20:27:37.672Z,100.00
2022-11-25T20:32:39.156Z,100.00
2022-11-25T20:37:51.315Z,100.00
2022-11-25T20:42:52.995Z,100.00
2022-11-25T20:47:54.381Z,100.00
2022-11-25T20:52:55.726Z,100.00
2022-11-25T20:57:57.079Z,100.00
2022-11-25T21:02:58.415Z,100.00
2022-11-25T21:08:00.945Z,100.00
2022-11-25T21:13:09.385Z,100.00
2022-11-25T21:18:11.131Z,100.00
2022-11-25T21:23:29.094Z,100.00
2022-11-25T21:28:31.208Z,100.00
2022-11-25T21:33:32.557Z,100.00
2022-11-25T21:38:33.951Z,100.00
2022-11-25T21:43:39.604Z,100.00
2022-11-25T21:48:40.987Z,100.00
2022-11-25T21:53:42.346Z,100.00
2022-11-25T21:58:43.834Z,100.00
2022-11-25T22:03:45.175Z,100.00
2022-11-25T22:08:46.553Z,100.00
2022-11-25T22:13:48.564Z,100.00
2022-11-25T22:18:50.006Z,100.00
2022-11-25T22:23:51.381Z,100.00
2022-11-25T22:28:53.072Z,100.00
2022-11-25T22:33:54.780Z,100.00
2022-11-25T22:38:57.258Z,100.00
2022-11-25T22:43:58.629Z,100.00
2022-11-25T22:48:59.974Z,100.00
2022-11-25T22:54:01.303Z,100.00
2022-11-25T22:59:02.639Z,100.00
2022-11-25T23:04:04.194Z,100.00
2022-11-25T23:09:10.120Z,100.00
2022-11-25T23:14:12.026Z,100.00
2022-11-25T23:19:15.308Z,100.00
2022-11-25T23:24:16.978Z,100.00
2022-11-25T23:29:18.301Z,100.00
2022-11-25T23:34:19.701Z,100.00
2022-11-25T23:39:25.526Z,100.00
2022-11-25T23:44:28.063Z,100.00
2022-11-25T23:49:49.846Z,100.00
2022-11-25T23:54:52.449Z,100.00
2022-11-25T23:59:53.845Z,100.00
